Terminal Aerodrome Forecast
Issued by NWS

Current Version | Previous Version | Graphics & Text | Print | Product List | Glossary On
Versions: 1 2 3 4 5 6 7 8 9 10 11 12 13 14 15 16 17 18 19 20 21
000
FTUS41 KRLX 021700
TAFCKB
TAF
KCKB 021740Z 0218/0318 28009KT P6SM BKN020
     FM022100 28006KT P6SM SCT025
     FM030800 VRB02KT P6SM BKN150
     FM031100 14003KT P6SM OVC050
     FM031700 17005KT 4SM -RA BR OVC020=

USA.gov is the U.S. government's official web portal to all federal, state and local government web resources and services.